sensor_id;sensor_type;location;lat;lon;timestamp;P1;durP1;ratioP1;P2;durP2;ratioP2
68938;SDS011;59064;45.294;11.816;2022-11-03T00:02:03;46.70;;;27.90;;
68938;SDS011;59064;45.294;11.816;2022-11-03T00:04:29;45.30;;;26.20;;
68938;SDS011;59064;45.294;11.816;2022-11-03T00:06:55;47.90;;;29.40;;
68938;SDS011;59064;45.294;11.816;2022-11-03T00:09:22;45.00;;;26.60;;
68938;SDS011;59064;45.294;11.816;2022-11-03T00:11:49;48.10;;;27.80;;
68938;SDS011;59064;45.294;11.816;2022-11-03T00:14:16;54.10;;;29.40;;
68938;SDS011;59064;45.294;11.816;2022-11-03T00:16:43;59.60;;;33.60;;
68938;SDS011;59064;45.294;11.816;2022-11-03T00:19:10;51.20;;;29.90;;
68938;SDS011;59064;45.294;11.816;2022-11-03T00:21:37;48.50;;;28.70;;
68938;SDS011;59064;45.294;11.816;2022-11-03T00:24:03;54.60;;;30.40;;
68938;SDS011;59064;45.294;11.816;2022-11-03T00:26:31;48.50;;;29.20;;
68938;SDS011;59064;45.294;11.816;2022-11-03T00:29:00;49.80;;;29.30;;
68938;SDS011;59064;45.294;11.816;2022-11-03T00:31:32;44.20;;;26.80;;
68938;SDS011;59064;45.294;11.816;2022-11-03T00:33:59;47.50;;;27.20;;
68938;SDS011;59064;45.294;11.816;2022-11-03T00:36:28;46.00;;;27.10;;
68938;SDS011;59064;45.294;11.816;2022-11-03T00:38:56;50.80;;;25.70;;
68938;SDS011;59064;45.294;11.816;2022-11-03T00:41:23;51.30;;;27.60;;
68938;SDS011;59064;45.294;11.816;2022-11-03T00:43:50;52.20;;;29.90;;
68938;SDS011;59064;45.294;11.816;2022-11-03T00:46:18;51.40;;;29.60;;
68938;SDS011;59064;45.294;11.816;2022-11-03T00:48:45;46.80;;;27.10;;
68938;SDS011;59064;45.294;11.816;2022-11-03T00:51:22;42.90;;;24.10;;
68938;SDS011;59064;45.294;11.816;2022-11-03T00:53:54;47.70;;;28.10;;
68938;SDS011;59064;45.294;11.816;2022-11-03T00:56:29;48.80;;;27.10;;
68938;SDS011;59064;45.294;11.816;2022-11-03T00:58:57;36.50;;;21.30;;
68938;SDS011;59064;45.294;11.816;2022-11-03T01:01:26;46.10;;;25.90;;
68938;SDS011;59064;45.294;11.816;2022-11-03T01:03:54;41.60;;;24.00;;
68938;SDS011;59064;45.294;11.816;2022-11-03T01:06:42;48.30;;;28.40;;
68938;SDS011;59064;45.294;11.816;2022-11-03T01:14:40;53.10;;;30.40;;
68938;SDS011;59064;45.294;11.816;2022-11-03T01:17:11;43.40;;;27.10;;
68938;SDS011;59064;45.294;11.816;2022-11-03T01:19:38;50.80;;;28.30;;
68938;SDS011;59064;45.294;11.816;2022-11-03T01:22:04;51.00;;;29.20;;
68938;SDS011;59064;45.294;11.816;2022-11-03T01:24:30;48.50;;;27.80;;
68938;SDS011;59064;45.294;11.816;2022-11-03T01:26:56;48.40;;;28.60;;
68938;SDS011;59064;45.294;11.816;2022-11-03T01:29:22;48.80;;;27.40;;
68938;SDS011;59064;45.294;11.816;2022-11-03T01:31:47;47.90;;;27.70;;
68938;SDS011;59064;45.294;11.816;2022-11-03T01:34:14;47.80;;;26.60;;
68938;SDS011;59064;45.294;11.816;2022-11-03T01:36:42;49.30;;;28.10;;
68938;SDS011;59064;45.294;11.816;2022-11-03T01:39:13;51.70;;;28.80;;
68938;SDS011;59064;45.294;11.816;2022-11-03T01:41:43;46.00;;;27.50;;
68938;SDS011;59064;45.294;11.816;2022-11-03T01:46:47;40.60;;;24.80;;
68938;SDS011;59064;45.294;11.816;2022-11-03T01:49:14;51.50;;;29.30;;
68938;SDS011;59064;45.294;11.816;2022-11-03T01:51:51;48.00;;;27.60;;
68938;SDS011;59064;45.294;11.816;2022-11-03T01:54:38;48.80;;;27.80;;
68938;SDS011;59064;45.294;11.816;2022-11-03T01:57:10;46.80;;;27.60;;
68938;SDS011;59064;45.294;11.816;2022-11-03T01:59:42;48.50;;;29.00;;
68938;SDS011;59064;45.294;11.816;2022-11-03T02:02:10;44.70;;;27.70;;
68938;SDS011;59064;45.294;11.816;2022-11-03T02:04:36;45.70;;;26.30;;
68938;SDS011;59064;45.294;11.816;2022-11-03T02:07:25;43.90;;;26.00;;
68938;SDS011;59064;45.294;11.816;2022-11-03T02:09:56;52.20;;;28.80;;
68938;SDS011;59064;45.294;11.816;2022-11-03T02:12:22;46.10;;;27.60;;
68938;SDS011;59064;45.294;11.816;2022-11-03T02:14:50;40.80;;;21.90;;
68938;SDS011;59064;45.294;11.816;2022-11-03T02:17:20;41.60;;;23.80;;
68938;SDS011;59064;45.294;11.816;2022-11-03T02:20:09;43.60;;;26.60;;
68938;SDS011;59064;45.294;11.816;2022-11-03T02:28:21;56.30;;;31.40;;
68938;SDS011;59064;45.294;11.816;2022-11-03T02:38:31;54.10;;;27.70;;
68938;SDS011;59064;45.294;11.816;2022-11-03T02:41:02;42.60;;;23.80;;
68938;SDS011;59064;45.294;11.816;2022-11-03T02:43:31;39.10;;;22.20;;
68938;SDS011;59064;45.294;11.816;2022-11-03T02:45:57;42.30;;;22.80;;
68938;SDS011;59064;45.294;11.816;2022-11-03T02:48:23;43.80;;;24.40;;
68938;SDS011;59064;45.294;11.816;2022-11-03T02:50:49;45.20;;;25.20;;
68938;SDS011;59064;45.294;11.816;2022-11-03T02:53:14;47.00;;;25.40;;
68938;SDS011;59064;45.294;11.816;2022-11-03T02:56:02;42.50;;;23.50;;
68938;SDS011;59064;45.294;11.816;2022-11-03T03:01:57;52.60;;;29.40;;
68938;SDS011;59064;45.294;11.816;2022-11-03T03:04:32;54.60;;;28.90;;
68938;SDS011;59064;45.294;11.816;2022-11-03T03:07:26;55.10;;;30.60;;
68938;SDS011;59064;45.294;11.816;2022-11-03T03:10:19;42.30;;;23.60;;
68938;SDS011;59064;45.294;11.816;2022-11-03T03:12:52;57.90;;;30.60;;
68938;SDS011;59064;45.294;11.816;2022-11-03T03:15:25;56.60;;;29.90;;
68938;SDS011;59064;45.294;11.816;2022-11-03T03:18:25;46.50;;;26.30;;
68938;SDS011;59064;45.294;11.816;2022-11-03T03:20:58;51.60;;;29.40;;
68938;SDS011;59064;45.294;11.816;2022-11-03T03:23:35;51.70;;;28.30;;
68938;SDS011;59064;45.294;11.816;2022-11-03T03:26:12;47.70;;;29.00;;
68938;SDS011;59064;45.294;11.816;2022-11-03T03:29:15;53.40;;;29.20;;
68938;SDS011;59064;45.294;11.816;2022-11-03T03:31:48;52.10;;;28.30;;
68938;SDS011;59064;45.294;11.816;2022-11-03T03:34:19;52.90;;;31.20;;
68938;SDS011;59064;45.294;11.816;2022-11-03T03:36:47;55.20;;;30.10;;
68938;SDS011;59064;45.294;11.816;2022-11-03T03:39:15;52.20;;;29.30;;
68938;SDS011;59064;45.294;11.816;2022-11-03T03:41:45;55.00;;;30.70;;
68938;SDS011;59064;45.294;11.816;2022-11-03T03:44:12;57.40;;;31.70;;
68938;SDS011;59064;45.294;11.816;2022-11-03T03:47:20;62.00;;;33.10;;
68938;SDS011;59064;45.294;11.816;2022-11-03T03:49:50;59.20;;;32.30;;
68938;SDS011;59064;45.294;11.816;2022-11-03T03:52:16;62.90;;;32.50;;
68938;SDS011;59064;45.294;11.816;2022-11-03T03:54:41;62.90;;;31.50;;
68938;SDS011;59064;45.294;11.816;2022-11-03T03:57:11;57.80;;;33.50;;
68938;SDS011;59064;45.294;11.816;2022-11-03T03:59:40;62.90;;;33.10;;
68938;SDS011;59064;45.294;11.816;2022-11-03T04:02:06;57.70;;;29.80;;
68938;SDS011;59064;45.294;11.816;2022-11-03T04:04:32;54.20;;;32.00;;
68938;SDS011;59064;45.294;11.816;2022-11-03T04:06:58;59.20;;;31.40;;
68938;SDS011;59064;45.294;11.816;2022-11-03T04:09:52;54.90;;;31.00;;
68938;SDS011;59064;45.294;11.816;2022-11-03T04:12:18;55.60;;;31.80;;
68938;SDS011;59064;45.294;11.816;2022-11-03T04:15:02;59.60;;;30.90;;
68938;SDS011;59064;45.294;11.816;2022-11-03T04:17:48;56.90;;;31.90;;
68938;SDS011;59064;45.294;11.816;2022-11-03T04:20:33;61.00;;;31.50;;
68938;SDS011;59064;45.294;11.816;2022-11-03T04:23:18;55.80;;;29.50;;
68938;SDS011;59064;45.294;11.816;2022-11-03T04:25:49;53.90;;;29.80;;
68938;SDS011;59064;45.294;11.816;2022-11-03T04:28:17;59.80;;;31.50;;
68938;SDS011;59064;45.294;11.816;2022-11-03T04:30:43;57.10;;;31.60;;
68938;SDS011;59064;45.294;11.816;2022-11-03T04:33:16;50.80;;;29.10;;
68938;SDS011;59064;45.294;11.816;2022-11-03T04:35:44;54.10;;;29.30;;
68938;SDS011;59064;45.294;11.816;2022-11-03T04:40:48;53.50;;;30.20;;
68938;SDS011;59064;45.294;11.816;2022-11-03T04:43:19;49.00;;;27.80;;
68938;SDS011;59064;45.294;11.816;2022-11-03T04:45:47;47.80;;;27.40;;
68938;SDS011;59064;45.294;11.816;2022-11-03T04:48:18;52.00;;;28.50;;
68938;SDS011;59064;45.294;11.816;2022-11-03T04:50:47;54.00;;;33.10;;
68938;SDS011;59064;45.294;11.816;2022-11-03T04:53:16;54.70;;;30.20;;
68938;SDS011;59064;45.294;11.816;2022-11-03T04:55:45;53.20;;;29.20;;
68938;SDS011;59064;45.294;11.816;2022-11-03T04:58:22;53.40;;;29.60;;
68938;SDS011;59064;45.294;11.816;2022-11-03T05:00:53;51.80;;;29.70;;
68938;SDS011;59064;45.294;11.816;2022-11-03T05:03:23;53.80;;;29.80;;
68938;SDS011;59064;45.294;11.816;2022-11-03T05:05:51;59.00;;;31.70;;
68938;SDS011;59064;45.294;11.816;2022-11-03T05:08:18;58.90;;;32.90;;
68938;SDS011;59064;45.294;11.816;2022-11-03T05:10:44;58.50;;;31.90;;
68938;SDS011;59064;45.294;11.816;2022-11-03T05:13:24;56.20;;;30.80;;
68938;SDS011;59064;45.294;11.816;2022-11-03T05:16:03;58.10;;;30.30;;
68938;SDS011;59064;45.294;11.816;2022-11-03T05:18:32;50.30;;;28.80;;
68938;SDS011;59064;45.294;11.816;2022-11-03T05:23:39;51.60;;;28.00;;
68938;SDS011;59064;45.294;11.816;2022-11-03T05:26:28;44.50;;;24.20;;
68938;SDS011;59064;45.294;11.816;2022-11-03T05:29:03;47.10;;;25.10;;
68938;SDS011;59064;45.294;11.816;2022-11-03T05:31:38;48.30;;;25.90;;
68938;SDS011;59064;45.294;11.816;2022-11-03T05:34:16;57.40;;;29.40;;
68938;SDS011;59064;45.294;11.816;2022-11-03T05:36:43;44.60;;;24.50;;
68938;SDS011;59064;45.294;11.816;2022-11-03T05:39:29;55.70;;;27.90;;
68938;SDS011;59064;45.294;11.816;2022-11-03T05:41:58;61.50;;;32.00;;
68938;SDS011;59064;45.294;11.816;2022-11-03T05:44:35;60.60;;;31.60;;
68938;SDS011;59064;45.294;11.816;2022-11-03T05:47:13;60.00;;;31.30;;
68938;SDS011;59064;45.294;11.816;2022-11-03T05:49:45;53.30;;;29.20;;
68938;SDS011;59064;45.294;11.816;2022-11-03T05:52:35;56.90;;;28.50;;
68938;SDS011;59064;45.294;11.816;2022-11-03T05:55:00;49.40;;;27.50;;
68938;SDS011;59064;45.294;11.816;2022-11-03T05:57:27;55.90;;;29.20;;
68938;SDS011;59064;45.294;11.816;2022-11-03T05:59:54;52.80;;;28.30;;
68938;SDS011;59064;45.294;11.816;2022-11-03T06:02:39;52.40;;;30.70;;
68938;SDS011;59064;45.294;11.816;2022-11-03T06:05:13;59.60;;;31.10;;
68938;SDS011;59064;45.294;11.816;2022-11-03T06:07:42;62.10;;;33.20;;
68938;SDS011;59064;45.294;11.816;2022-11-03T06:10:31;67.20;;;34.50;;
68938;SDS011;59064;45.294;11.816;2022-11-03T06:13:06;63.10;;;33.00;;
68938;SDS011;59064;45.294;11.816;2022-11-03T06:15:39;64.10;;;34.40;;
68938;SDS011;59064;45.294;11.816;2022-11-03T06:18:19;65.90;;;32.60;;
68938;SDS011;59064;45.294;11.816;2022-11-03T06:20:53;51.70;;;28.90;;
68938;SDS011;59064;45.294;11.816;2022-11-03T06:23:23;55.20;;;28.20;;
68938;SDS011;59064;45.294;11.816;2022-11-03T06:25:53;53.70;;;26.90;;
68938;SDS011;59064;45.294;11.816;2022-11-03T06:28:24;65.90;;;31.00;;
68938;SDS011;59064;45.294;11.816;2022-11-03T06:30:51;61.40;;;31.30;;
68938;SDS011;59064;45.294;11.816;2022-11-03T06:33:28;60.20;;;29.40;;
68938;SDS011;59064;45.294;11.816;2022-11-03T06:36:02;63.80;;;30.70;;
68938;SDS011;59064;45.294;11.816;2022-11-03T06:38:37;61.10;;;31.80;;
68938;SDS011;59064;45.294;11.816;2022-11-03T06:41:03;57.00;;;31.00;;
68938;SDS011;59064;45.294;11.816;2022-11-03T06:43:39;59.70;;;32.10;;
68938;SDS011;59064;45.294;11.816;2022-11-03T06:46:23;66.10;;;32.60;;
68938;SDS011;59064;45.294;11.816;2022-11-03T06:48:54;65.10;;;35.40;;
68938;SDS011;59064;45.294;11.816;2022-11-03T06:51:25;64.10;;;34.70;;
68938;SDS011;59064;45.294;11.816;2022-11-03T06:53:53;59.80;;;31.40;;
68938;SDS011;59064;45.294;11.816;2022-11-03T06:56:23;59.70;;;31.30;;
68938;SDS011;59064;45.294;11.816;2022-11-03T06:58:53;58.60;;;32.40;;
68938;SDS011;59064;45.294;11.816;2022-11-03T07:01:24;60.00;;;32.10;;
68938;SDS011;59064;45.294;11.816;2022-11-03T07:04:02;54.70;;;30.20;;
68938;SDS011;59064;45.294;11.816;2022-11-03T07:06:37;54.30;;;31.10;;
68938;SDS011;59064;45.294;11.816;2022-11-03T07:09:04;59.00;;;32.20;;
68938;SDS011;59064;45.294;11.816;2022-11-03T07:11:44;56.40;;;31.40;;
68938;SDS011;59064;45.294;11.816;2022-11-03T07:14:30;53.90;;;31.90;;
68938;SDS011;59064;45.294;11.816;2022-11-03T07:17:04;55.00;;;32.20;;
68938;SDS011;59064;45.294;11.816;2022-11-03T07:19:38;52.80;;;29.70;;
68938;SDS011;59064;45.294;11.816;2022-11-03T07:22:22;56.70;;;29.40;;
68938;SDS011;59064;45.294;11.816;2022-11-03T07:24:55;50.70;;;28.20;;
68938;SDS011;59064;45.294;11.816;2022-11-03T07:33:23;49.90;;;27.10;;
68938;SDS011;59064;45.294;11.816;2022-11-03T07:35:51;47.60;;;23.60;;
68938;SDS011;59064;45.294;11.816;2022-11-03T07:38:21;56.20;;;29.30;;
68938;SDS011;59064;45.294;11.816;2022-11-03T07:40:50;53.30;;;26.30;;
68938;SDS011;59064;45.294;11.816;2022-11-03T07:43:21;51.30;;;27.30;;
68938;SDS011;59064;45.294;11.816;2022-11-03T07:45:52;49.30;;;25.80;;
68938;SDS011;59064;45.294;11.816;2022-11-03T07:50:57;47.40;;;26.90;;
68938;SDS011;59064;45.294;11.816;2022-11-03T07:53:35;55.10;;;27.10;;
68938;SDS011;59064;45.294;11.816;2022-11-03T07:56:19;55.60;;;28.80;;
68938;SDS011;59064;45.294;11.816;2022-11-03T08:01:52;58.70;;;31.60;;
68938;SDS011;59064;45.294;11.816;2022-11-03T08:04:22;53.50;;;29.70;;
68938;SDS011;59064;45.294;11.816;2022-11-03T08:06:52;55.20;;;28.60;;
68938;SDS011;59064;45.294;11.816;2022-11-03T08:09:18;53.30;;;30.00;;
68938;SDS011;59064;45.294;11.816;2022-11-03T08:11:45;51.10;;;28.10;;
68938;SDS011;59064;45.294;11.816;2022-11-03T08:14:11;50.80;;;26.30;;
68938;SDS011;59064;45.294;11.816;2022-11-03T08:16:37;49.60;;;27.00;;
68938;SDS011;59064;45.294;11.816;2022-11-03T08:19:03;50.00;;;28.20;;
68938;SDS011;59064;45.294;11.816;2022-11-03T08:21:29;49.60;;;26.80;;
68938;SDS011;59064;45.294;11.816;2022-11-03T08:23:55;53.70;;;29.40;;
68938;SDS011;59064;45.294;11.816;2022-11-03T08:26:20;51.20;;;27.80;;
68938;SDS011;59064;45.294;11.816;2022-11-03T08:28:46;51.30;;;27.90;;
68938;SDS011;59064;45.294;11.816;2022-11-03T08:31:12;60.40;;;30.30;;
68938;SDS011;59064;45.294;11.816;2022-11-03T08:33:38;51.60;;;28.20;;
68938;SDS011;59064;45.294;11.816;2022-11-03T08:36:05;53.70;;;27.40;;
68938;SDS011;59064;45.294;11.816;2022-11-03T08:38:30;54.90;;;29.60;;
68938;SDS011;59064;45.294;11.816;2022-11-03T08:40:56;48.70;;;26.50;;
68938;SDS011;59064;45.294;11.816;2022-11-03T08:43:27;51.00;;;26.00;;
68938;SDS011;59064;45.294;11.816;2022-11-03T08:45:53;54.80;;;27.70;;
68938;SDS011;59064;45.294;11.816;2022-11-03T08:48:20;53.50;;;27.70;;
68938;SDS011;59064;45.294;11.816;2022-11-03T08:50:54;51.70;;;26.00;;
68938;SDS011;59064;45.294;11.816;2022-11-03T08:53:25;48.50;;;26.20;;
68938;SDS011;59064;45.294;11.816;2022-11-03T08:55:52;52.70;;;27.20;;
68938;SDS011;59064;45.294;11.816;2022-11-03T08:58:19;49.70;;;26.00;;
68938;SDS011;59064;45.294;11.816;2022-11-03T09:00:46;50.20;;;27.00;;
68938;SDS011;59064;45.294;11.816;2022-11-03T09:03:12;54.20;;;26.40;;
68938;SDS011;59064;45.294;11.816;2022-11-03T09:05:39;53.50;;;28.00;;
68938;SDS011;59064;45.294;11.816;2022-11-03T09:08:05;47.80;;;23.10;;
68938;SDS011;59064;45.294;11.816;2022-11-03T09:10:31;56.10;;;27.30;;
68938;SDS011;59064;45.294;11.816;2022-11-03T09:12:57;53.60;;;26.10;;
68938;SDS011;59064;45.294;11.816;2022-11-03T09:15:22;55.60;;;28.10;;
68938;SDS011;59064;45.294;11.816;2022-11-03T09:17:48;54.10;;;26.40;;
68938;SDS011;59064;45.294;11.816;2022-11-03T09:20:13;52.70;;;25.10;;
68938;SDS011;59064;45.294;11.816;2022-11-03T09:22:39;54.10;;;27.70;;
68938;SDS011;59064;45.294;11.816;2022-11-03T09:25:05;59.30;;;28.60;;
68938;SDS011;59064;45.294;11.816;2022-11-03T09:27:31;53.70;;;27.60;;
68938;SDS011;59064;45.294;11.816;2022-11-03T09:29:57;53.30;;;28.70;;
68938;SDS011;59064;45.294;11.816;2022-11-03T09:32:24;57.90;;;29.20;;
68938;SDS011;59064;45.294;11.816;2022-11-03T09:34:50;60.30;;;28.50;;
68938;SDS011;59064;45.294;11.816;2022-11-03T09:37:16;53.90;;;27.90;;
68938;SDS011;59064;45.294;11.816;2022-11-03T09:39:42;57.80;;;28.90;;
68938;SDS011;59064;45.294;11.816;2022-11-03T09:42:10;54.20;;;26.50;;
68938;SDS011;59064;45.294;11.816;2022-11-03T09:44:36;57.40;;;28.60;;
68938;SDS011;59064;45.294;11.816;2022-11-03T09:47:04;46.50;;;22.20;;
68938;SDS011;59064;45.294;11.816;2022-11-03T09:49:31;57.00;;;30.10;;
68938;SDS011;59064;45.294;11.816;2022-11-03T09:52:01;61.80;;;29.30;;
68938;SDS011;59064;45.294;11.816;2022-11-03T09:54:28;56.80;;;29.40;;
68938;SDS011;59064;45.294;11.816;2022-11-03T09:57:05;51.40;;;27.70;;
68938;SDS011;59064;45.294;11.816;2022-11-03T09:59:36;54.50;;;27.90;;
68938;SDS011;59064;45.294;11.816;2022-11-03T10:02:02;62.80;;;31.00;;
68938;SDS011;59064;45.294;11.816;2022-11-03T10:04:36;53.70;;;27.70;;
68938;SDS011;59064;45.294;11.816;2022-11-03T10:07:01;52.90;;;25.60;;
68938;SDS011;59064;45.294;11.816;2022-11-03T10:09:29;57.10;;;29.00;;
68938;SDS011;59064;45.294;11.816;2022-11-03T10:11:54;53.90;;;29.60;;
68938;SDS011;59064;45.294;11.816;2022-11-03T10:14:20;47.10;;;25.00;;
68938;SDS011;59064;45.294;11.816;2022-11-03T10:16:57;55.30;;;29.40;;
68938;SDS011;59064;45.294;11.816;2022-11-03T10:19:24;51.80;;;26.60;;
68938;SDS011;59064;45.294;11.816;2022-11-03T10:21:51;56.00;;;27.40;;
68938;SDS011;59064;45.294;11.816;2022-11-03T10:24:17;54.50;;;28.60;;
68938;SDS011;59064;45.294;11.816;2022-11-03T10:29:22;56.60;;;29.50;;
68938;SDS011;59064;45.294;11.816;2022-11-03T10:31:52;48.80;;;26.00;;
68938;SDS011;59064;45.294;11.816;2022-11-03T10:34:37;54.40;;;29.40;;
68938;SDS011;59064;45.294;11.816;2022-11-03T10:37:22;56.10;;;29.30;;
68938;SDS011;59064;45.294;11.816;2022-11-03T10:39:58;46.80;;;26.10;;
68938;SDS011;59064;45.294;11.816;2022-11-03T10:42:29;50.90;;;29.10;;
68938;SDS011;59064;45.294;11.816;2022-11-03T10:45:15;53.30;;;27.00;;
68938;SDS011;59064;45.294;11.816;2022-11-03T10:47:42;54.60;;;29.80;;
68938;SDS011;59064;45.294;11.816;2022-11-03T10:50:19;52.00;;;27.90;;
68938;SDS011;59064;45.294;11.816;2022-11-03T10:52:48;60.90;;;33.00;;
68938;SDS011;59064;45.294;11.816;2022-11-03T10:55:15;52.20;;;29.50;;
68938;SDS011;59064;45.294;11.816;2022-11-03T10:57:42;53.90;;;28.80;;
68938;SDS011;59064;45.294;11.816;2022-11-03T11:00:15;53.00;;;30.00;;
68938;SDS011;59064;45.294;11.816;2022-11-03T11:02:46;42.80;;;25.00;;
68938;SDS011;59064;45.294;11.816;2022-11-03T11:05:22;43.40;;;24.30;;
68938;SDS011;59064;45.294;11.816;2022-11-03T11:07:52;51.70;;;28.80;;
68938;SDS011;59064;45.294;11.816;2022-11-03T11:10:28;53.80;;;29.60;;
68938;SDS011;59064;45.294;11.816;2022-11-03T11:18:04;49.70;;;27.70;;
68938;SDS011;59064;45.294;11.816;2022-11-03T11:20:40;57.40;;;28.60;;
68938;SDS011;59064;45.294;11.816;2022-11-03T11:50:24;60.00;;;29.00;;
68938;SDS011;59064;45.294;11.816;2022-11-03T11:52:57;59.90;;;27.60;;
68938;SDS011;59064;45.294;11.816;2022-11-03T11:58:13;56.90;;;29.00;;
68938;SDS011;59064;45.294;11.816;2022-11-03T12:00:50;65.40;;;30.30;;
68938;SDS011;59064;45.294;11.816;2022-11-03T12:03:41;57.10;;;24.10;;
68938;SDS011;59064;45.294;11.816;2022-11-03T12:06:11;64.30;;;30.00;;
68938;SDS011;59064;45.294;11.816;2022-11-03T12:08:38;67.30;;;31.00;;
68938;SDS011;59064;45.294;11.816;2022-11-03T12:11:10;74.70;;;33.00;;
68938;SDS011;59064;45.294;11.816;2022-11-03T12:13:45;65.00;;;34.10;;
68938;SDS011;59064;45.294;11.816;2022-11-03T12:16:35;63.50;;;31.70;;
68938;SDS011;59064;45.294;11.816;2022-11-03T12:19:34;65.50;;;31.20;;
68938;SDS011;59064;45.294;11.816;2022-11-03T12:22:00;69.30;;;33.30;;
68938;SDS011;59064;45.294;11.816;2022-11-03T12:26:57;66.90;;;30.90;;
68938;SDS011;59064;45.294;11.816;2022-11-03T12:29:24;61.70;;;28.20;;
68938;SDS011;59064;45.294;11.816;2022-11-03T12:31:50;60.20;;;30.00;;
68938;SDS011;59064;45.294;11.816;2022-11-03T12:34:16;62.80;;;27.60;;
68938;SDS011;59064;45.294;11.816;2022-11-03T12:36:42;57.10;;;28.30;;
68938;SDS011;59064;45.294;11.816;2022-11-03T12:39:09;57.70;;;27.30;;
68938;SDS011;59064;45.294;11.816;2022-11-03T12:41:35;50.20;;;24.00;;
68938;SDS011;59064;45.294;11.816;2022-11-03T12:44:01;58.40;;;28.40;;
68938;SDS011;59064;45.294;11.816;2022-11-03T12:46:27;49.00;;;23.30;;
68938;SDS011;59064;45.294;11.816;2022-11-03T12:48:53;48.60;;;22.40;;
68938;SDS011;59064;45.294;11.816;2022-11-03T12:51:20;43.90;;;21.30;;
68938;SDS011;59064;45.294;11.816;2022-11-03T12:53:48;42.90;;;21.10;;
68938;SDS011;59064;45.294;11.816;2022-11-03T12:56:14;48.40;;;24.60;;
68938;SDS011;59064;45.294;11.816;2022-11-03T12:58:41;51.50;;;24.70;;
68938;SDS011;59064;45.294;11.816;2022-11-03T13:01:07;53.00;;;28.00;;
68938;SDS011;59064;45.294;11.816;2022-11-03T13:03:33;61.20;;;28.60;;
68938;SDS011;59064;45.294;11.816;2022-11-03T13:06:00;60.90;;;28.80;;
68938;SDS011;59064;45.294;11.816;2022-11-03T13:08:29;61.40;;;28.40;;
68938;SDS011;59064;45.294;11.816;2022-11-03T13:10:57;52.10;;;28.30;;
68938;SDS011;59064;45.294;11.816;2022-11-03T13:13:23;57.60;;;27.90;;
68938;SDS011;59064;45.294;11.816;2022-11-03T13:15:49;50.90;;;25.90;;
68938;SDS011;59064;45.294;11.816;2022-11-03T13:18:17;61.00;;;28.00;;
68938;SDS011;59064;45.294;11.816;2022-11-03T13:20:46;56.90;;;27.50;;
68938;SDS011;59064;45.294;11.816;2022-11-03T13:23:12;51.40;;;27.10;;
68938;SDS011;59064;45.294;11.816;2022-11-03T13:25:39;55.90;;;28.90;;
68938;SDS011;59064;45.294;11.816;2022-11-03T13:28:05;55.70;;;26.30;;
68938;SDS011;59064;45.294;11.816;2022-11-03T13:30:30;56.80;;;27.40;;
68938;SDS011;59064;45.294;11.816;2022-11-03T13:32:57;48.80;;;26.20;;
68938;SDS011;59064;45.294;11.816;2022-11-03T13:35:23;50.60;;;25.50;;
68938;SDS011;59064;45.294;11.816;2022-11-03T13:37:49;55.20;;;28.70;;
68938;SDS011;59064;45.294;11.816;2022-11-03T13:40:15;52.60;;;26.50;;
68938;SDS011;59064;45.294;11.816;2022-11-03T13:42:41;53.80;;;24.40;;
68938;SDS011;59064;45.294;11.816;2022-11-03T13:45:07;54.50;;;27.50;;
68938;SDS011;59064;45.294;11.816;2022-11-03T13:47:33;51.20;;;26.70;;
68938;SDS011;59064;45.294;11.816;2022-11-03T13:50:00;54.00;;;25.90;;
68938;SDS011;59064;45.294;11.816;2022-11-03T13:52:26;54.00;;;28.50;;
68938;SDS011;59064;45.294;11.816;2022-11-03T13:54:52;48.90;;;26.60;;
68938;SDS011;59064;45.294;11.816;2022-11-03T13:57:19;54.00;;;25.30;;
68938;SDS011;59064;45.294;11.816;2022-11-03T13:59:45;49.60;;;28.10;;
68938;SDS011;59064;45.294;11.816;2022-11-03T14:02:11;50.90;;;27.40;;
68938;SDS011;59064;45.294;11.816;2022-11-03T14:04:37;53.30;;;29.70;;
68938;SDS011;59064;45.294;11.816;2022-11-03T14:07:04;57.50;;;28.60;;
68938;SDS011;59064;45.294;11.816;2022-11-03T14:09:31;56.70;;;28.30;;
68938;SDS011;59064;45.294;11.816;2022-11-03T14:11:57;53.90;;;28.20;;
68938;SDS011;59064;45.294;11.816;2022-11-03T14:14:41;55.50;;;27.60;;
68938;SDS011;59064;45.294;11.816;2022-11-03T14:17:07;51.80;;;25.90;;
68938;SDS011;59064;45.294;11.816;2022-11-03T14:19:33;51.40;;;26.50;;
68938;SDS011;59064;45.294;11.816;2022-11-03T14:21:59;56.40;;;28.40;;
68938;SDS011;59064;45.294;11.816;2022-11-03T14:24:25;57.10;;;29.60;;
68938;SDS011;59064;45.294;11.816;2022-11-03T14:26:51;54.90;;;29.40;;
68938;SDS011;59064;45.294;11.816;2022-11-03T14:29:16;56.40;;;28.30;;
68938;SDS011;59064;45.294;11.816;2022-11-03T14:31:42;51.50;;;28.40;;
68938;SDS011;59064;45.294;11.816;2022-11-03T14:34:08;53.30;;;27.00;;
68938;SDS011;59064;45.294;11.816;2022-11-03T14:36:34;52.60;;;30.00;;
68938;SDS011;59064;45.294;11.816;2022-11-03T14:38:59;53.60;;;30.50;;
68938;SDS011;59064;45.294;11.816;2022-11-03T14:41:25;53.60;;;29.30;;
68938;SDS011;59064;45.294;11.816;2022-11-03T14:44:09;54.60;;;28.80;;
68938;SDS011;59064;45.294;11.816;2022-11-03T14:46:35;53.20;;;27.80;;
68938;SDS011;59064;45.294;11.816;2022-11-03T14:49:01;53.10;;;28.20;;
68938;SDS011;59064;45.294;11.816;2022-11-03T14:51:27;56.30;;;30.40;;
68938;SDS011;59064;45.294;11.816;2022-11-03T14:53:54;54.30;;;27.40;;
68938;SDS011;59064;45.294;11.816;2022-11-03T14:56:21;51.70;;;26.80;;
68938;SDS011;59064;45.294;11.816;2022-11-03T14:58:46;50.10;;;25.10;;
68938;SDS011;59064;45.294;11.816;2022-11-03T15:01:12;52.10;;;26.90;;
68938;SDS011;59064;45.294;11.816;2022-11-03T15:03:38;55.70;;;27.90;;
68938;SDS011;59064;45.294;11.816;2022-11-03T15:06:04;59.70;;;29.70;;
68938;SDS011;59064;45.294;11.816;2022-11-03T15:08:29;53.20;;;28.20;;
68938;SDS011;59064;45.294;11.816;2022-11-03T15:10:56;48.00;;;24.90;;
68938;SDS011;59064;45.294;11.816;2022-11-03T15:13:22;57.70;;;29.80;;
68938;SDS011;59064;45.294;11.816;2022-11-03T15:15:48;55.20;;;29.80;;
68938;SDS011;59064;45.294;11.816;2022-11-03T15:18:14;57.50;;;28.90;;
68938;SDS011;59064;45.294;11.816;2022-11-03T15:20:39;56.50;;;28.60;;
68938;SDS011;59064;45.294;11.816;2022-11-03T15:23:06;57.50;;;29.40;;
68938;SDS011;59064;45.294;11.816;2022-11-03T15:25:32;58.30;;;29.20;;
68938;SDS011;59064;45.294;11.816;2022-11-03T15:27:58;54.90;;;28.30;;
68938;SDS011;59064;45.294;11.816;2022-11-03T15:30:25;58.10;;;27.60;;
68938;SDS011;59064;45.294;11.816;2022-11-03T15:32:51;63.20;;;31.20;;
68938;SDS011;59064;45.294;11.816;2022-11-03T15:35:16;54.70;;;29.50;;
68938;SDS011;59064;45.294;11.816;2022-11-03T15:37:42;57.70;;;29.20;;
68938;SDS011;59064;45.294;11.816;2022-11-03T15:40:11;53.00;;;26.80;;
68938;SDS011;59064;45.294;11.816;2022-11-03T15:42:38;57.80;;;28.10;;
68938;SDS011;59064;45.294;11.816;2022-11-03T15:45:06;61.30;;;30.50;;
68938;SDS011;59064;45.294;11.816;2022-11-03T15:47:36;59.90;;;30.10;;
68938;SDS011;59064;45.294;11.816;2022-11-03T15:50:02;58.80;;;29.80;;